Time;durP1;ratioP1;P1;durP2;ratioP2;P2;SDS_P1;SDS_P2;PMS_P1;PMS_P2;Temp;Humidity;BMP_temperature;BMP_pressure;BME280_temperature;BME280_humidity;BME280_pressure;Samples;Min_cycle;Max_cycle;Signal;HPM_P1;HPM_P2
2021/06/07 00:01:08;;;;;;;2.90;1.70;;;15.40;99.90;;;;;;5022278;28;20223;-91
2021/06/07 00:03:35;;;;;;;2.35;1.70;;;15.40;99.90;;;;;;5017056;28;20221;-91
2021/06/07 00:06:01;;;;;;;1.90;1.80;;;15.40;99.90;;;;;;5009102;28;20629;-90
2021/06/07 00:09:00;;;;;;;1.98;1.60;;;15.40;99.90;;;;;;5022213;28;20202;-90
2021/06/07 00:11:28;;;;;;;2.95;1.58;;;15.40;99.90;;;;;;5016310;28;20235;-90
2021/06/07 00:13:55;;;;;;;3.80;2.00;;;15.40;99.90;;;;;;5022769;28;20225;-90
2021/06/07 00:16:21;;;;;;;2.55;1.70;;;15.40;99.90;;;;;;5017414;28;20235;-90
2021/06/07 00:18:48;;;;;;;1.60;1.50;;;15.40;99.90;;;;;;5015375;28;20210;-90
2021/06/07 00:21:17;;;;;;;2.08;1.50;;;15.40;99.90;;;;;;5017488;28;20230;-90
2021/06/07 00:23:44;;;;;;;4.32;1.70;;;15.40;99.90;;;;;;5019430;28;20419;-89
2021/06/07 00:26:11;;;;;;;1.95;1.80;;;15.40;99.90;;;;;;5019742;28;20235;-92
2021/06/07 00:28:39;;;;;;;2.05;1.52;;;15.30;99.90;;;;;;5014122;28;20659;-89
2021/06/07 00:31:07;;;;;;;2.30;1.90;;;15.30;99.90;;;;;;5018047;28;20281;-90
2021/06/07 00:33:34;;;;;;;2.90;1.60;;;15.20;99.90;;;;;;5019469;28;20219;-90
2021/06/07 00:36:01;;;;;;;1.70;1.60;;;15.30;99.90;;;;;;5009702;28;20778;-90
2021/06/07 00:38:28;;;;;;;1.60;1.50;;;15.30;99.90;;;;;;5018936;28;20207;-90
2021/06/07 00:40:57;;;;;;;1.90;1.80;;;15.30;99.90;;;;;;5017621;28;20258;-92
2021/06/07 00:43:23;;;;;;;1.80;1.70;;;15.30;99.90;;;;;;5022472;28;20244;-90
2021/06/07 00:45:51;;;;;;;1.92;1.70;;;15.20;99.90;;;;;;5012175;28;20228;-89
2021/06/07 00:48:18;;;;;;;1.92;1.70;;;15.30;99.90;;;;;;5018567;28;20206;-91
2021/06/07 00:50:48;;;;;;;1.75;1.50;;;15.40;99.90;;;;;;5003579;28;20695;-90
2021/06/07 00:53:17;;;;;;;2.08;1.75;;;15.50;99.90;;;;;;5012314;28;20234;-89
2021/06/07 00:55:48;;;;;;;3.58;1.70;;;15.50;99.90;;;;;;5015325;28;20593;-92
2021/06/07 00:58:15;;;;;;;2.50;1.70;;;15.40;99.90;;;;;;5016399;28;20219;-89
2021/06/07 01:00:41;;;;;;;2.05;1.77;;;15.40;99.90;;;;;;5017875;28;20227;-90
2021/06/07 01:03:11;;;;;;;1.90;1.80;;;15.30;99.90;;;;;;5017842;28;20203;-92
2021/06/07 01:05:39;;;;;;;1.85;1.75;;;15.30;99.90;;;;;;5001775;28;20255;-89
2021/06/07 01:08:07;;;;;;;1.88;1.77;;;15.20;99.90;;;;;;5016752;28;20199;-90
2021/06/07 01:10:35;;;;;;;1.88;1.55;;;15.20;99.90;;;;;;5013837;28;20235;-90
2021/06/07 01:13:01;;;;;;;2.30;2.05;;;15.20;99.90;;;;;;5014008;28;20227;-89
2021/06/07 01:15:28;;;;;;;1.90;1.80;;;15.10;99.90;;;;;;5011031;28;20235;-89
2021/06/07 01:17:55;;;;;;;3.55;1.98;;;15.10;99.90;;;;;;5018434;28;20199;-91
2021/06/07 01:20:23;;;;;;;2.03;1.92;;;15.20;99.90;;;;;;5016356;28;20227;-89
2021/06/07 01:22:52;;;;;;;2.03;1.83;;;15.30;99.90;;;;;;5010820;28;20200;-89
2021/06/07 01:25:23;;;;;;;2.00;1.80;;;15.30;99.90;;;;;;5017008;28;20223;-90
2021/06/07 01:27:50;;;;;;;1.80;1.70;;;15.30;99.90;;;;;;5012227;28;20192;-91
2021/06/07 01:30:19;;;;;;;1.98;1.80;;;15.30;99.90;;;;;;5016915;28;20241;-89
2021/06/07 01:32:45;;;;;;;2.78;1.98;;;15.30;99.90;;;;;;5015484;28;20191;-91
2021/06/07 01:35:13;;;;;;;2.85;2.13;;;15.20;99.90;;;;;;5011809;28;20232;-89
2021/06/07 01:37:41;;;;;;;2.10;1.90;;;15.10;99.90;;;;;;5018849;28;20253;-90
2021/06/07 01:40:14;;;;;;;2.75;2.00;;;15.10;99.90;;;;;;5011488;28;20246;-91
2021/06/07 01:42:40;;;;;;;2.40;2.20;;;15.00;99.90;;;;;;5019520;28;20188;-90
2021/06/07 01:45:09;;;;;;;3.50;1.95;;;14.90;99.90;;;;;;5013985;28;20227;-90
2021/06/07 01:47:35;;;;;;;2.20;1.90;;;15.00;99.90;;;;;;5014760;28;20204;-90
2021/06/07 01:50:05;;;;;;;4.70;2.40;;;15.00;99.90;;;;;;5005750;28;20223;-90
2021/06/07 01:52:31;;;;;;;2.00;1.90;;;14.90;99.90;;;;;;5003694;28;20578;-91
2021/06/07 01:54:57;;;;;;;5.82;2.40;;;14.90;99.90;;;;;;5012740;28;20717;-90
2021/06/07 01:57:25;;;;;;;5.68;2.13;;;14.90;99.90;;;;;;5014703;28;20314;-89
2021/06/07 01:59:52;;;;;;;3.28;2.05;;;15.00;99.90;;;;;;5008335;28;20582;-90
2021/06/07 02:02:18;;;;;;;2.60;2.10;;;15.00;99.90;;;;;;5008399;28;20207;-89
2021/06/07 02:04:44;;;;;;;3.28;1.90;;;15.00;99.90;;;;;;5014615;28;20639;-89
2021/06/07 02:07:11;;;;;;;3.05;2.10;;;15.00;99.90;;;;;;5014883;28;20261;-89
2021/06/07 02:09:39;;;;;;;2.65;1.95;;;15.10;99.90;;;;;;5009656;28;20219;-89
2021/06/07 02:12:06;;;;;;;2.83;2.20;;;15.20;99.90;;;;;;5023182;28;20202;-89
2021/06/07 02:14:34;;;;;;;2.50;2.30;;;15.30;99.90;;;;;;5023932;28;20207;-91
2021/06/07 02:17:01;;;;;;;2.80;2.60;;;15.30;99.90;;;;;;5012899;28;20208;-90
2021/06/07 02:19:27;;;;;;;4.65;2.08;;;15.30;99.90;;;;;;5014327;28;20200;-91
2021/06/07 02:21:54;;;;;;;6.57;2.15;;;15.30;99.90;;;;;;5009371;28;20200;-90
2021/06/07 02:24:25;;;;;;;2.20;1.80;;;15.40;99.90;;;;;;5012734;28;20210;-90
2021/06/07 02:26:52;;;;;;;2.22;1.67;;;15.40;99.90;;;;;;5001168;28;20208;-89
2021/06/07 02:29:18;;;;;;;3.55;1.70;;;15.40;99.90;;;;;;5019655;28;20227;-90
2021/06/07 02:31:46;;;;;;;2.63;1.90;;;15.30;99.90;;;;;;5010763;28;20246;-89
2021/06/07 02:34:13;;;;;;;2.88;1.80;;;15.20;99.90;;;;;;5015344;28;20203;-89
2021/06/07 02:36:42;;;;;;;3.10;2.20;;;15.30;99.90;;;;;;5013598;28;20280;-89
2021/06/07 02:39:10;;;;;;;2.22;2.03;;;15.20;99.90;;;;;;5008030;28;20206;-90
2021/06/07 02:41:39;;;;;;;3.10;2.00;;;15.20;99.90;;;;;;5018658;28;20584;-89
2021/06/07 02:44:06;;;;;;;2.53;2.20;;;15.10;99.90;;;;;;5016765;28;20207;-89
2021/06/07 02:46:33;;;;;;;2.92;2.20;;;15.10;99.90;;;;;;5013779;28;20694;-89
2021/06/07 02:49:00;;;;;;;5.13;2.50;;;14.90;99.90;;;;;;5013604;28;20199;-90
2021/06/07 02:51:27;;;;;;;2.75;2.53;;;14.90;99.90;;;;;;5009817;28;20277;-90
2021/06/07 02:53:54;;;;;;;3.47;2.38;;;14.80;99.90;;;;;;5015141;28;20235;-90
2021/06/07 02:56:20;;;;;;;5.13;2.40;;;14.80;99.90;;;;;;5011086;28;20323;-90
2021/06/07 02:58:46;;;;;;;2.92;2.60;;;14.70;99.90;;;;;;5014590;28;20215;-90
2021/06/07 03:01:13;;;;;;;3.67;2.28;;;14.80;99.90;;;;;;5011539;28;20224;-89
2021/06/07 03:03:40;;;;;;;3.08;2.30;;;14.80;99.90;;;;;;5015376;28;20219;-89
2021/06/07 03:06:08;;;;;;;2.40;2.20;;;14.80;99.90;;;;;;5014181;28;20233;-89
2021/06/07 03:08:36;;;;;;;2.30;1.90;;;14.80;99.90;;;;;;5014514;28;20218;-89
2021/06/07 03:11:06;;;;;;;2.90;2.00;;;14.90;99.90;;;;;;5014108;28;20226;-89
2021/06/07 03:13:33;;;;;;;2.30;2.10;;;15.00;99.90;;;;;;5006270;28;20208;-91
2021/06/07 03:16:00;;;;;;;2.55;2.15;;;15.10;99.90;;;;;;5010141;28;20227;-89
2021/06/07 03:18:27;;;;;;;2.10;2.00;;;15.20;99.90;;;;;;5010611;28;20200;-89
2021/06/07 03:20:54;;;;;;;3.70;2.30;;;15.20;99.90;;;;;;5015351;28;20225;-90
2021/06/07 03:23:25;;;;;;;3.63;2.28;;;15.20;99.90;;;;;;5015869;28;20245;-94
2021/06/07 03:25:53;;;;;;;2.80;2.38;;;15.10;99.90;;;;;;5009096;28;20223;-92
2021/06/07 03:28:20;;;;;;;3.95;2.70;;;15.00;99.90;;;;;;5013246;28;20215;-89
2021/06/07 03:30:48;;;;;;;2.60;2.40;;;15.00;99.90;;;;;;5013169;28;20234;-90
2021/06/07 03:33:14;;;;;;;2.50;2.30;;;15.10;99.90;;;;;;5011528;28;20203;-91
2021/06/07 03:35:43;;;;;;;3.20;2.50;;;15.20;99.90;;;;;;5016675;28;20768;-89
2021/06/07 03:38:10;;;;;;;6.57;2.35;;;15.30;99.90;;;;;;5025859;28;20202;-89
2021/06/07 03:40:41;;;;;;;2.25;2.05;;;15.30;99.90;;;;;;5013739;28;20698;-89
2021/06/07 03:43:09;;;;;;;2.22;2.13;;;15.40;99.90;;;;;;5015818;28;20200;-89
2021/06/07 03:45:36;;;;;;;2.80;1.90;;;15.50;99.90;;;;;;5014704;28;21030;-89
2021/06/07 03:48:04;;;;;;;3.20;2.15;;;15.50;99.90;;;;;;5015102;28;20200;-90
2021/06/07 03:50:32;;;;;;;5.43;2.40;;;15.50;99.90;;;;;;5017781;28;20227;-89
2021/06/07 03:52:59;;;;;;;2.28;2.00;;;15.50;99.90;;;;;;5017777;28;20251;-89
2021/06/07 03:55:27;;;;;;;2.38;2.03;;;15.50;99.90;;;;;;5011220;28;20244;-89
2021/06/07 03:57:57;;;;;;;3.75;1.90;;;15.50;99.90;;;;;;5018626;28;20647;-89
2021/06/07 04:00:26;;;;;;;2.63;1.77;;;15.50;99.90;;;;;;5011710;28;20261;-89
2021/06/07 04:02:54;;;;;;;2.85;1.90;;;15.60;99.90;;;;;;5006344;28;20204;-94
2021/06/07 04:05:57;;;;;;;3.30;1.85;;;15.60;99.90;;;;;;5030550;28;20238;-89
2021/06/07 04:08:24;;;;;;;1.92;1.70;;;15.60;99.90;;;;;;5016593;28;20203;-89
2021/06/07 04:10:50;;;;;;;2.33;1.90;;;15.60;99.90;;;;;;5007132;28;20691;-89
2021/06/07 04:13:18;;;;;;;2.60;1.90;;;15.60;99.90;;;;;;5021460;28;20234;-89
2021/06/07 04:15:44;;;;;;;2.15;2.05;;;15.80;99.90;;;;;;5007342;28;20234;-89
2021/06/07 04:18:11;;;;;;;1.98;1.85;;;15.80;99.90;;;;;;5032603;28;20203;-89
2021/06/07 04:20:37;;;;;;;4.03;1.80;;;15.90;99.90;;;;;;5034061;28;20246;-91
2021/06/07 04:23:04;;;;;;;2.28;2.00;;;15.90;99.90;;;;;;5023460;28;20271;-90
2021/06/07 04:25:31;;;;;;;2.90;2.10;;;16.00;99.90;;;;;;5026542;28;20234;-90
2021/06/07 04:27:59;;;;;;;2.10;1.95;;;16.10;99.90;;;;;;5021186;28;20724;-90
2021/06/07 04:30:28;;;;;;;3.35;1.90;;;16.30;99.90;;;;;;5031037;28;20234;-93
2021/06/07 04:32:56;;;;;;;2.72;2.00;;;16.50;99.90;;;;;;5008769;28;20216;-92
2021/06/07 04:35:23;;;;;;;2.00;1.80;;;16.60;99.90;;;;;;5020254;28;20724;-91
2021/06/07 04:41:14;;;;;;;2.15;1.80;;;16.90;99.90;;;;;;5018054;28;20677;-93
2021/06/07 04:44:20;;;;;;;2.92;1.77;;;16.90;99.90;;;;;;5018193;28;20626;-94
2021/06/07 04:47:41;;;;;;;2.95;1.40;;;17.00;99.90;;;;;;5011814;28;20619;-94
2021/06/07 04:50:11;;;;;;;1.70;1.60;;;17.10;99.50;;;;;;5023211;28;20757;-93
2021/06/07 04:55:34;;;;;;;2.05;1.60;;;17.00;99.20;;;;;;5020773;28;20240;-92
2021/06/07 04:58:02;;;;;;;3.10;1.70;;;16.90;99.50;;;;;;5025233;28;20278;-91
2021/06/07 05:00:29;;;;;;;1.83;1.45;;;16.90;99.50;;;;;;5019695;28;20207;-92
2021/06/07 05:02:56;;;;;;;1.90;1.77;;;16.90;99.40;;;;;;5019386;28;20191;-93
2021/06/07 05:12:19;;;;;;;2.33;1.90;;;17.00;99.40;;;;;;4956544;29;20244;-89
2021/06/07 05:18:08;;;;;;;2.17;1.80;;;16.90;99.30;;;;;;4945737;28;20208;-88
2021/06/07 05:20:34;;;;;;;3.55;1.80;;;17.00;99.70;;;;;;5016798;28;20227;-86
2021/06/07 05:23:14;;;;;;;1.90;1.70;;;17.10;99.50;;;;;;5022859;28;20192;-86
2021/06/07 05:25:42;;;;;;;2.00;1.80;;;17.30;99.20;;;;;;5022415;28;20301;-88
2021/06/07 05:28:11;;;;;;;1.90;1.80;;;17.30;98.80;;;;;;5020905;28;20192;-86
2021/06/07 05:30:39;;;;;;;2.25;1.60;;;17.40;98.60;;;;;;5016497;28;20231;-91
2021/06/07 05:33:06;;;;;;;2.03;1.80;;;17.40;98.30;;;;;;5017749;28;20206;-92
2021/06/07 05:35:36;;;;;;;1.73;1.60;;;17.40;98.00;;;;;;5025643;28;20741;-88
2021/06/07 05:38:03;;;;;;;2.03;1.58;;;17.40;98.30;;;;;;5022906;28;20202;-88
2021/06/07 05:40:32;;;;;;;1.70;1.60;;;17.40;98.50;;;;;;5022874;28;20223;-88
2021/06/07 05:42:59;;;;;;;1.83;1.40;;;17.50;97.90;;;;;;5019501;28;20622;-89
2021/06/07 05:45:27;;;;;;;2.08;1.60;;;17.50;97.80;;;;;;5018615;28;20231;-86
2021/06/07 05:47:56;;;;;;;1.60;1.50;;;17.70;97.50;;;;;;5019655;28;20520;-87
2021/06/07 06:17:09;;;;;;;2.00;1.73;;;18.00;95.90;;;;;;5144847;22;20231;-85
2021/06/07 06:19:35;;;;;;;1.67;1.58;;;17.90;95.50;;;;;;5030679;28;20217;-86
2021/06/07 06:22:04;;;;;;;2.88;1.60;;;17.90;95.60;;;;;;5024361;28;20259;-86
2021/06/07 06:24:30;;;;;;;1.67;1.58;;;18.00;95.40;;;;;;5018370;28;20378;-88
2021/06/07 06:26:56;;;;;;;1.60;1.50;;;18.20;94.30;;;;;;5022783;28;20203;-86
2021/06/07 06:29:42;;;;;;;1.95;1.70;;;18.20;93.80;;;;;;5026815;28;20195;-86
2021/06/07 06:32:33;;;;;;;2.85;1.85;;;18.20;94.20;;;;;;5024401;28;20218;-88
2021/06/07 06:35:31;;;;;;;2.45;1.40;;;18.30;94.30;;;;;;5023790;28;20258;-85
2021/06/07 06:37:58;;;;;;;1.70;1.60;;;18.40;93.10;;;;;;4998647;28;20188;-87
2021/06/07 06:40:31;;;;;;;2.33;1.40;;;18.50;93.10;;;;;;5017998;28;20299;-86
2021/06/07 06:43:19;;;;;;;1.50;1.40;;;18.70;93.20;;;;;;5017759;28;20609;-86
2021/06/07 06:45:49;;;;;;;1.67;1.58;;;19.00;93.10;;;;;;5020225;28;20243;-89
2021/06/07 06:48:17;;;;;;;2.28;1.35;;;19.00;92.40;;;;;;5027149;28;20210;-85
2021/06/07 06:54:06;;;;;;;2.28;1.40;;;18.90;92.80;;;;;;5016061;28;20237;-88
2021/06/07 06:56:32;;;;;;;1.60;1.50;;;19.00;92.40;;;;;;5001727;28;20231;-86
2021/06/07 06:59:22;;;;;;;1.70;1.60;;;18.90;92.40;;;;;;5016242;28;20203;-86
2021/06/07 07:01:50;;;;;;;1.70;1.60;;;18.90;92.70;;;;;;4980928;28;20208;-88
2021/06/07 07:04:19;;;;;;;5.05;1.73;;;18.80;92.80;;;;;;5004694;28;20239;-89
2021/06/07 07:06:46;;;;;;;2.17;1.80;;;18.80;92.30;;;;;;5006423;28;20231;-84
2021/06/07 07:09:12;;;;;;;1.83;1.73;;;18.80;92.30;;;;;;5014614;28;20199;-85
2021/06/07 07:11:39;;;;;;;1.80;1.70;;;18.80;92.30;;;;;;5018116;28;20243;-89
2021/06/07 07:14:05;;;;;;;2.08;1.88;;;18.80;92.30;;;;;;5001726;28;20207;-90
2021/06/07 07:16:32;;;;;;;2.78;1.88;;;18.80;92.30;;;;;;5000493;28;20223;-89
2021/06/07 07:18:58;;;;;;;1.60;1.50;;;19.00;92.40;;;;;;4987928;28;20199;-87
2021/06/07 07:21:26;;;;;;;3.30;1.70;;;19.30;90.80;;;;;;5000751;28;20250;-88
2021/06/07 07:23:52;;;;;;;4.95;1.60;;;19.50;90.60;;;;;;5001980;28;20223;-88
2021/06/07 07:26:19;;;;;;;2.03;1.70;;;19.80;90.80;;;;;;5001650;28;20227;-87
2021/06/07 07:28:46;;;;;;;4.85;1.75;;;20.00;90.70;;;;;;5010036;28;20246;-85
2021/06/07 07:31:12;;;;;;;2.13;2.03;;;20.20;90.20;;;;;;4995997;28;20232;-86
2021/06/07 07:33:44;;;;;;;1.70;1.60;;;20.30;89.40;;;;;;5010629;28;20204;-86
2021/06/07 07:36:11;;;;;;;1.60;1.50;;;20.40;88.60;;;;;;5008168;28;20232;-87
2021/06/07 07:38:39;;;;;;;3.13;1.90;;;20.40;88.10;;;;;;5008009;28;20203;-88
2021/06/07 07:41:06;;;;;;;3.03;1.83;;;20.30;87.50;;;;;;5022235;28;20239;-88
2021/06/07 07:43:32;;;;;;;1.95;1.70;;;20.20;87.00;;;;;;5016659;28;20200;-87
2021/06/07 07:45:59;;;;;;;3.75;2.00;;;20.40;89.10;;;;;;5011472;28;20223;-86
2021/06/07 07:48:25;;;;;;;2.92;1.98;;;20.30;86.00;;;;;;5006621;28;20207;-85
2021/06/07 07:50:52;;;;;;;1.90;1.70;;;20.30;86.80;;;;;;5018777;28;20239;-87
2021/06/07 07:53:19;;;;;;;1.63;1.52;;;20.60;86.00;;;;;;5006962;28;20227;-88
2021/06/07 07:55:50;;;;;;;1.65;1.55;;;20.70;83.80;;;;;;5007256;28;20274;-82
2021/06/07 07:58:17;;;;;;;2.22;1.60;;;20.80;84.50;;;;;;5024796;28;20227;-84
2021/06/07 08:00:50;;;;;;;1.60;1.50;;;20.80;81.40;;;;;;5009236;28;20247;-86
2021/06/07 08:03:16;;;;;;;1.50;1.40;;;21.20;81.70;;;;;;5011619;28;20207;-87
2021/06/07 08:05:43;;;;;;;1.50;1.35;;;21.90;75.10;;;;;;5020373;28;20215;-87
2021/06/07 08:08:09;;;;;;;2.10;1.20;;;21.90;75.20;;;;;;5007688;28;20204;-85
2021/06/07 08:11:08;;;;;;;1.38;1.27;;;22.20;71.10;;;;;;5006839;28;20263;-87
2021/06/07 08:13:35;;;;;;;1.10;1.00;;;22.50;69.80;;;;;;5003357;28;20204;-83
2021/06/07 08:19:35;;;;;;;2.47;1.20;;;23.60;62.70;;;;;;5003898;28;20187;-80
2021/06/07 08:22:01;;;;;;;1.70;1.30;;;23.40;59.00;;;;;;5018458;28;20211;-80
2021/06/07 08:24:27;;;;;;;1.40;1.25;;;22.90;60.90;;;;;;5023118;28;20199;-81
2021/06/07 08:26:55;;;;;;;1.23;1.13;;;22.80;63.40;;;;;;5023254;28;20195;-81
2021/06/07 08:29:22;;;;;;;1.42;1.20;;;24.00;59.50;;;;;;5015984;28;20215;-84
2021/06/07 08:31:55;;;;;;;1.08;1.05;;;25.50;48.60;;;;;;5008972;28;20241;-85
2021/06/07 08:34:21;;;;;;;1.00;1.00;;;26.40;46.10;;;;;;5007590;28;20191;-84
2021/06/07 08:36:48;;;;;;;3.55;1.40;;;27.00;40.00;;;;;;5003626;28;20218;-85
2021/06/07 08:39:15;;;;;;;4.13;1.58;;;26.40;41.80;;;;;;5004630;28;20691;-86
2021/06/07 08:41:42;;;;;;;2.67;1.20;;;25.60;46.40;;;;;;4980067;28;20294;-85
2021/06/07 08:44:10;;;;;;;2.90;1.52;;;25.10;46.70;;;;;;4998635;28;20211;-84
2021/06/07 08:46:36;;;;;;;3.00;1.48;;;24.30;51.10;;;;;;5001466;28;20256;-86
2021/06/07 08:49:04;;;;;;;3.63;1.60;;;24.00;53.40;;;;;;5003420;28;20207;-86
2021/06/07 08:51:30;;;;;;;1.92;1.50;;;23.60;53.80;;;;;;5000166;28;20242;-85
2021/06/07 08:53:56;;;;;;;1.48;1.30;;;22.80;58.40;;;;;;5002841;28;20219;-83
2021/06/07 09:00:29;;;;;;;1.88;1.55;;;21.80;64.70;;;;;;5020921;28;20216;-87
2021/06/07 09:06:25;;;;;;;1.00;0.90;;;21.20;71.80;;;;;;5006513;28;20566;-86
2021/06/07 09:09:24;;;;;;;1.10;1.10;;;21.30;76.50;;;;;;4985484;28;20199;-84
2021/06/07 09:15:26;;;;;;;1.52;1.42;;;21.00;76.60;;;;;;4980683;28;20231;-89
2021/06/07 09:17:54;;;;;;;3.83;1.30;;;20.50;78.60;;;;;;5004189;28;20245;-85
2021/06/07 09:20:21;;;;;;;2.78;1.42;;;20.30;80.40;;;;;;4989910;28;20228;-92
2021/06/07 09:23:22;;;;;;;3.78;1.50;;;20.00;80.80;;;;;;4987470;28;20527;-87
2021/06/07 09:25:49;;;;;;;2.75;1.40;;;19.90;80.80;;;;;;4969481;28;20200;-89
2021/06/07 09:28:19;;;;;;;6.10;2.00;;;19.90;80.80;;;;;;4987882;28;20203;-87
2021/06/07 09:41:05;;;;;;;1.65;1.30;;;20.30;79.00;;;;;;4985246;28;20224;-88
2021/06/07 09:46:50;;;;;;;2.33;1.70;;;20.40;81.00;;;;;;4990068;28;20314;-86
2021/06/07 09:49:18;;;;;;;1.77;1.65;;;20.40;81.50;;;;;;4989051;28;20332;-89
2021/06/07 09:51:56;;;;;;;3.45;1.60;;;20.60;76.90;;;;;;4980486;28;20292;-86
2021/06/07 09:54:24;;;;;;;1.38;1.27;;;20.80;77.00;;;;;;4981553;28;20297;-86
2021/06/07 09:56:54;;;;;;;2.88;1.70;;;21.20;77.80;;;;;;4977986;28;20216;-86
2021/06/07 09:59:25;;;;;;;1.63;1.52;;;21.30;75.00;;;;;;4981808;28;20551;-86
2021/06/07 10:01:52;;;;;;;3.10;1.52;;;21.60;72.80;;;;;;4990043;28;20274;-87
2021/06/07 10:04:18;;;;;;;2.15;1.60;;;21.60;67.60;;;;;;4977540;28;20299;-86
2021/06/07 10:06:44;;;;;;;1.90;1.70;;;21.50;68.50;;;;;;4977943;28;20233;-87
2021/06/07 10:09:15;;;;;;;2.00;1.88;;;21.70;68.70;;;;;;4985638;28;20200;-86
2021/06/07 10:11:45;;;;;;;2.92;2.10;;;21.80;68.00;;;;;;4978874;28;20951;-86
2021/06/07 10:14:15;;;;;;;2.20;2.00;;;22.00;64.10;;;;;;4976035;28;20200;-87
2021/06/07 10:16:53;;;;;;;3.35;1.90;;;21.80;64.10;;;;;;4974687;28;20594;-87
2021/06/07 10:19:29;;;;;;;1.80;1.70;;;21.90;66.70;;;;;;4978410;28;20652;-89
2021/06/07 10:21:55;;;;;;;1.67;1.52;;;21.80;66.70;;;;;;4962941;28;20235;-87
2021/06/07 10:24:31;;;;;;;1.63;1.52;;;21.80;69.70;;;;;;4976189;28;20223;-83
2021/06/07 10:26:57;;;;;;;1.70;1.58;;;21.60;69.10;;;;;;4993197;28;20212;-85
2021/06/07 10:29:32;;;;;;;6.63;1.90;;;21.40;72.00;;;;;;4978346;28;20207;-86
2021/06/07 10:32:05;;;;;;;2.30;2.05;;;21.30;75.30;;;;;;4977403;28;20208;-86
2021/06/07 10:34:45;;;;;;;3.92;3.50;;;21.00;74.30;;;;;;4981138;28;20227;-86
2021/06/07 10:37:14;;;;;;;3.13;2.10;;;20.60;76.50;;;;;;4976974;28;20204;-86
2021/06/07 10:39:41;;;;;;;1.80;1.70;;;20.50;78.80;;;;;;4973568;28;20196;-86
2021/06/07 10:42:23;;;;;;;2.00;1.88;;;20.50;81.20;;;;;;4993628;28;20288;-86
2021/06/07 10:44:59;;;;;;;3.28;2.20;;;20.60;80.80;;;;;;4980271;28;20228;-87
2021/06/07 10:47:40;;;;;;;2.45;2.25;;;20.70;77.70;;;;;;4982614;28;20215;-89
2021/06/07 10:50:10;;;;;;;2.22;2.10;;;20.40;75.10;;;;;;4974877;28;20227;-88
2021/06/07 10:52:42;;;;;;;2.60;2.40;;;20.60;76.80;;;;;;4982983;28;20200;-87
2021/06/07 10:55:11;;;;;;;2.70;2.50;;;20.70;75.80;;;;;;4983992;28;20316;-86
2021/06/07 10:57:40;;;;;;;3.83;2.60;;;20.70;77.50;;;;;;4982165;28;20204;-88
2021/06/07 11:00:30;;;;;;;4.20;2.60;;;20.60;78.90;;;;;;4985394;28;20235;-86
2021/06/07 11:02:58;;;;;;;3.78;2.60;;;20.60;78.50;;;;;;4987685;28;20200;-87
2021/06/07 11:05:27;;;;;;;2.60;2.40;;;20.60;77.70;;;;;;4971896;28;20236;-87
2021/06/07 11:08:17;;;;;;;3.22;2.30;;;20.80;76.90;;;;;;4985721;28;20679;-87
2021/06/07 11:10:44;;;;;;;4.40;2.50;;;21.20;75.40;;;;;;4976218;28;20233;-87
2021/06/07 11:13:15;;;;;;;11.70;3.13;;;21.40;76.50;;;;;;4975781;28;20204;-91
2021/06/07 11:15:53;;;;;;;3.53;2.90;;;21.70;70.90;;;;;;4978870;28;20645;-85
2021/06/07 11:18:25;;;;;;;3.17;2.80;;;22.00;71.00;;;;;;4979616;28;21019;-88
2021/06/07 11:20:54;;;;;;;3.05;2.80;;;22.30;64.10;;;;;;4976687;28;20726;-87
2021/06/07 11:23:21;;;;;;;2.90;2.55;;;22.70;64.70;;;;;;4972847;28;20208;-85
2021/06/07 11:25:53;;;;;;;3.22;3.00;;;23.10;62.70;;;;;;4982997;28;20285;-86
2021/06/07 11:28:47;;;;;;;3.42;3.08;;;23.00;58.60;;;;;;4980778;28;20204;-88
2021/06/07 11:31:52;;;;;;;3.55;3.10;;;22.80;59.50;;;;;;4974053;28;20247;-88
2021/06/07 11:34:47;;;;;;;3.10;2.85;;;22.50;63.00;;;;;;4975604;28;20271;-87
2021/06/07 11:37:15;;;;;;;3.55;3.25;;;22.50;64.20;;;;;;4981479;28;20224;-89
2021/06/07 11:39:53;;;;;;;4.63;3.88;;;22.30;62.70;;;;;;4978034;28;20236;-88
2021/06/07 11:42:22;;;;;;;4.40;3.20;;;22.30;64.30;;;;;;4979179;28;20629;-90
2021/06/07 11:44:56;;;;;;;3.75;3.22;;;22.50;62.00;;;;;;4977638;28;20279;-89
2021/06/07 11:47:26;;;;;;;3.53;3.22;;;22.80;58.40;;;;;;4976583;28;20280;-89
2021/06/07 11:50:09;;;;;;;3.25;3.05;;;22.90;58.50;;;;;;4981905;28;20593;-88
2021/06/07 11:52:48;;;;;;;3.30;3.00;;;23.10;58.70;;;;;;4981818;28;20211;-90
2021/06/07 11:55:17;;;;;;;3.28;2.85;;;23.40;57.90;;;;;;4974745;28;20219;-86
2021/06/07 11:57:44;;;;;;;4.20;3.05;;;23.90;54.80;;;;;;4988052;28;20196;-86
2021/06/07 12:00:12;;;;;;;5.50;3.53;;;24.40;52.40;;;;;;4987771;28;20234;-87
2021/06/07 12:02:39;;;;;;;2.95;2.75;;;24.10;51.60;;;;;;4985375;28;20638;-89
2021/06/07 12:05:08;;;;;;;3.45;2.60;;;24.30;52.30;;;;;;4984997;28;20287;-85
2021/06/07 12:07:45;;;;;;;3.92;3.63;;;24.70;55.10;;;;;;4982758;28;20201;-84
2021/06/07 12:10:15;;;;;;;3.60;3.30;;;24.80;49.40;;;;;;4983285;28;20643;-83
2021/06/07 12:12:42;;;;;;;4.25;3.47;;;24.60;50.80;;;;;;4980146;28;20205;-86
2021/06/07 12:15:10;;;;;;;3.55;3.35;;;24.80;48.20;;;;;;4977358;28;20768;-88
2021/06/07 12:17:44;;;;;;;3.05;2.85;;;25.20;50.20;;;;;;4976459;28;20217;-83
2021/06/07 12:20:12;;;;;;;3.40;3.10;;;25.40;45.90;;;;;;4975847;28;20224;-84
2021/06/07 12:22:41;;;;;;;4.28;3.30;;;25.30;48.30;;;;;;5006568;28;20207;-88
2021/06/07 12:25:19;;;;;;;3.40;3.20;;;23.80;51.80;;;;;;4981311;28;20239;-86
2021/06/07 12:30:46;;;;;;;3.03;2.83;;;22.80;58.40;;;;;;4971118;28;20335;-86
2021/06/07 12:33:14;;;;;;;3.60;3.30;;;23.50;59.10;;;;;;4994627;28;20256;-87
2021/06/07 12:35:40;;;;;;;7.18;3.20;;;23.80;55.30;;;;;;4977394;28;20240;-90
2021/06/07 12:38:08;;;;;;;4.88;3.78;;;24.00;54.70;;;;;;4981706;28;20557;-88
2021/06/07 12:40:37;;;;;;;5.00;3.38;;;24.20;52.30;;;;;;4990211;28;20271;-86
2021/06/07 12:43:15;;;;;;;3.30;3.03;;;24.00;52.50;;;;;;4989256;28;20196;-86
2021/06/07 12:45:44;;;;;;;3.40;3.10;;;23.70;50.00;;;;;;4991695;28;20224;-88
2021/06/07 12:48:14;;;;;;;3.90;2.97;;;23.50;55.50;;;;;;4979595;28;20560;-88
2021/06/07 12:50:43;;;;;;;3.00;2.72;;;23.50;53.60;;;;;;4965547;28;20225;-87
2021/06/07 12:53:10;;;;;;;3.40;2.78;;;23.90;56.30;;;;;;4983172;28;20228;-88
2021/06/07 12:55:39;;;;;;;4.80;3.03;;;24.20;54.30;;;;;;4977154;28;20229;-87
2021/06/07 12:58:08;;;;;;;3.65;3.35;;;24.70;49.60;;;;;;4977380;28;20212;-85
2021/06/07 13:00:38;;;;;;;3.92;3.58;;;24.80;49.50;;;;;;4971457;28;20235;-86
2021/06/07 13:03:25;;;;;;;3.10;2.90;;;24.30;49.20;;;;;;4978431;28;20197;-85
2021/06/07 13:06:10;;;;;;;3.20;3.00;;;24.70;48.20;;;;;;4961485;28;20292;-87
2021/06/07 13:08:50;;;;;;;3.40;3.10;;;24.00;47.80;;;;;;4991166;28;20205;-87
2021/06/07 13:11:17;;;;;;;3.70;3.38;;;24.40;49.30;;;;;;4981990;28;20297;-86
2021/06/07 13:13:46;;;;;;;3.45;2.80;;;24.70;47.00;;;;;;4986773;28;20203;-88
2021/06/07 13:16:14;;;;;;;6.30;4.47;;;24.00;51.00;;;;;;4981809;28;20237;-87
2021/06/07 13:19:03;;;;;;;4.07;3.67;;;24.10;50.40;;;;;;4969036;28;20197;-88
2021/06/07 13:21:37;;;;;;;4.00;3.70;;;24.10;50.30;;;;;;4972454;28;20239;-88
2021/06/07 13:24:04;;;;;;;3.60;3.28;;;23.90;49.10;;;;;;4968704;28;20288;-88
2021/06/07 13:26:32;;;;;;;3.75;3.50;;;23.50;51.10;;;;;;4983884;28;20236;-87
2021/06/07 13:29:29;;;;;;;4.38;3.28;;;23.30;54.30;;;;;;4983465;28;20619;-86
2021/06/07 13:32:21;;;;;;;3.30;3.00;;;23.10;55.50;;;;;;4955316;28;20229;-92
2021/06/07 13:34:52;;;;;;;3.10;2.90;;;23.20;54.50;;;;;;4976508;28;20224;-86
2021/06/07 13:37:26;;;;;;;3.45;3.15;;;23.10;53.10;;;;;;4986281;28;20232;-93
2021/06/07 13:39:58;;;;;;;3.60;3.30;;;23.50;52.60;;;;;;4978335;28;20247;-85
2021/06/07 13:42:25;;;;;;;3.42;3.05;;;23.80;53.40;;;;;;4978340;28;20618;-86
2021/06/07 13:44:54;;;;;;;3.90;3.33;;;24.20;49.70;;;;;;4962773;28;20293;-84
2021/06/07 13:47:24;;;;;;;4.05;3.38;;;24.40;49.30;;;;;;4975354;28;20296;-86
2021/06/07 13:50:05;;;;;;;3.65;3.35;;;24.50;47.70;;;;;;4970642;28;20306;-86
2021/06/07 13:52:49;;;;;;;5.43;3.45;;;24.40;48.80;;;;;;4970555;28;20236;-88
2021/06/07 13:55:21;;;;;;;7.03;3.92;;;24.40;48.70;;;;;;4959838;28;20240;-88
2021/06/07 13:58:12;;;;;;;4.30;3.90;;;24.50;47.90;;;;;;4980114;28;20428;-89
2021/06/07 14:00:41;;;;;;;4.65;3.53;;;24.30;47.40;;;;;;4966960;28;20243;-86
2021/06/07 14:04:00;;;;;;;4.18;3.88;;;24.20;50.10;;;;;;4968471;29;20205;-86
2021/06/07 14:06:32;;;;;;;4.45;4.05;;;24.10;48.10;;;;;;4969888;28;20216;-86
2021/06/07 14:09:07;;;;;;;4.40;4.00;;;24.00;48.30;;;;;;4969039;29;20273;-87
2021/06/07 14:11:35;;;;;;;5.40;4.53;;;24.00;49.70;;;;;;4986313;28;20223;-87
2021/06/07 14:14:02;;;;;;;5.32;3.70;;;23.90;47.00;;;;;;5001205;28;20232;-87
2021/06/07 14:16:32;;;;;;;3.97;3.58;;;23.60;49.40;;;;;;5007333;28;20232;-87
2021/06/07 14:19:01;;;;;;;4.70;4.07;;;23.50;49.70;;;;;;4998126;28;20235;-89
2021/06/07 14:21:32;;;;;;;5.15;4.05;;;23.50;51.40;;;;;;4980728;28;20224;-88
2021/06/07 14:26:46;;;;;;;4.47;4.07;;;23.50;49.20;;;;;;5004313;28;20270;-89